sensor_id;sensor_type;location;lat;lon;timestamp;P1;durP1;ratioP1;P2;durP2;ratioP2
30533;SDS011;17318;52.390;9.754;2022-12-10T00:01:03;76.03;;;26.42;;
30533;SDS011;17318;52.390;9.754;2022-12-10T00:03:34;77.43;;;26.08;;
30533;SDS011;17318;52.390;9.754;2022-12-10T00:06:04;84.93;;;27.02;;
30533;SDS011;17318;52.390;9.754;2022-12-10T00:08:32;73.25;;;26.08;;
30533;SDS011;17318;52.390;9.754;2022-12-10T00:10:59;79.72;;;27.27;;
30533;SDS011;17318;52.390;9.754;2022-12-10T00:13:26;74.03;;;24.92;;
30533;SDS011;17318;52.390;9.754;2022-12-10T00:15:52;77.95;;;27.33;;
30533;SDS011;17318;52.390;9.754;2022-12-10T00:18:18;70.18;;;24.83;;
30533;SDS011;17318;52.390;9.754;2022-12-10T00:20:43;84.15;;;26.95;;
30533;SDS011;17318;52.390;9.754;2022-12-10T00:23:09;69.75;;;25.17;;
30533;SDS011;17318;52.390;9.754;2022-12-10T00:25:35;71.32;;;24.05;;
30533;SDS011;17318;52.390;9.754;2022-12-10T00:28:00;76.20;;;25.65;;
30533;SDS011;17318;52.390;9.754;2022-12-10T00:30:26;72.00;;;25.17;;
30533;SDS011;17318;52.390;9.754;2022-12-10T00:32:52;73.63;;;24.85;;
30533;SDS011;17318;52.390;9.754;2022-12-10T00:35:17;75.93;;;25.00;;
30533;SDS011;17318;52.390;9.754;2022-12-10T00:37:43;71.57;;;25.45;;
30533;SDS011;17318;52.390;9.754;2022-12-10T00:40:09;71.47;;;25.75;;
30533;SDS011;17318;52.390;9.754;2022-12-10T00:42:38;63.92;;;23.77;;
30533;SDS011;17318;52.390;9.754;2022-12-10T00:45:03;70.75;;;25.13;;
30533;SDS011;17318;52.390;9.754;2022-12-10T00:47:29;65.93;;;24.70;;
30533;SDS011;17318;52.390;9.754;2022-12-10T00:50:01;69.05;;;24.35;;
30533;SDS011;17318;52.390;9.754;2022-12-10T00:52:28;70.07;;;25.45;;
30533;SDS011;17318;52.390;9.754;2022-12-10T00:54:54;64.18;;;23.50;;
30533;SDS011;17318;52.390;9.754;2022-12-10T00:57:19;70.60;;;24.92;;
30533;SDS011;17318;52.390;9.754;2022-12-10T00:59:45;68.95;;;23.38;;
30533;SDS011;17318;52.390;9.754;2022-12-10T01:02:11;60.30;;;22.48;;
30533;SDS011;17318;52.390;9.754;2022-12-10T01:04:36;65.30;;;23.27;;
30533;SDS011;17318;52.390;9.754;2022-12-10T01:07:02;68.18;;;24.55;;
30533;SDS011;17318;52.390;9.754;2022-12-10T01:09:28;62.25;;;22.50;;
30533;SDS011;17318;52.390;9.754;2022-12-10T01:11:56;66.03;;;22.33;;
30533;SDS011;17318;52.390;9.754;2022-12-10T01:14:28;61.28;;;22.45;;
30533;SDS011;17318;52.390;9.754;2022-12-10T01:16:57;72.30;;;25.02;;
30533;SDS011;17318;52.390;9.754;2022-12-10T01:19:24;60.85;;;21.10;;
30533;SDS011;17318;52.390;9.754;2022-12-10T01:21:53;58.33;;;21.23;;
30533;SDS011;17318;52.390;9.754;2022-12-10T01:24:21;59.70;;;20.92;;
30533;SDS011;17318;52.390;9.754;2022-12-10T01:29:13;61.65;;;21.00;;
30533;SDS011;17318;52.390;9.754;2022-12-10T01:31:40;63.83;;;21.83;;
30533;SDS011;17318;52.390;9.754;2022-12-10T01:34:06;67.55;;;22.05;;
30533;SDS011;17318;52.390;9.754;2022-12-10T01:36:35;64.00;;;22.05;;
30533;SDS011;17318;52.390;9.754;2022-12-10T01:39:07;66.70;;;21.85;;
30533;SDS011;17318;52.390;9.754;2022-12-10T01:46:33;68.90;;;20.90;;
30533;SDS011;17318;52.390;9.754;2022-12-10T01:49:05;65.80;;;22.42;;
30533;SDS011;17318;52.390;9.754;2022-12-10T01:51:33;67.43;;;20.58;;
30533;SDS011;17318;52.390;9.754;2022-12-10T01:54:01;65.88;;;20.83;;
30533;SDS011;17318;52.390;9.754;2022-12-10T01:58:56;66.35;;;20.63;;
30533;SDS011;17318;52.390;9.754;2022-12-10T02:04:15;65.07;;;22.63;;
30533;SDS011;17318;52.390;9.754;2022-12-10T02:12:49;60.35;;;20.33;;
30533;SDS011;17318;52.390;9.754;2022-12-10T02:15:21;58.60;;;20.30;;
30533;SDS011;17318;52.390;9.754;2022-12-10T02:17:55;54.90;;;19.60;;
30533;SDS011;17318;52.390;9.754;2022-12-10T02:20:34;65.05;;;20.40;;
30533;SDS011;17318;52.390;9.754;2022-12-10T02:23:04;53.03;;;19.38;;
30533;SDS011;17318;52.390;9.754;2022-12-10T02:25:46;55.08;;;18.38;;
30533;SDS011;17318;52.390;9.754;2022-12-10T02:31:18;50.75;;;18.65;;
30533;SDS011;17318;52.390;9.754;2022-12-10T02:33:49;57.78;;;19.38;;
30533;SDS011;17318;52.390;9.754;2022-12-10T02:36:20;54.10;;;17.38;;
30533;SDS011;17318;52.390;9.754;2022-12-10T02:38:48;52.05;;;18.13;;
30533;SDS011;17318;52.390;9.754;2022-12-10T02:41:17;56.53;;;20.45;;
30533;SDS011;17318;52.390;9.754;2022-12-10T02:43:46;57.05;;;18.98;;
30533;SDS011;17318;52.390;9.754;2022-12-10T02:46:16;61.55;;;20.20;;
30533;SDS011;17318;52.390;9.754;2022-12-10T02:48:41;57.90;;;19.90;;
30533;SDS011;17318;52.390;9.754;2022-12-10T02:51:09;61.05;;;20.30;;
30533;SDS011;17318;52.390;9.754;2022-12-10T02:53:40;59.65;;;19.40;;
30533;SDS011;17318;52.390;9.754;2022-12-10T03:02:15;55.05;;;19.58;;
30533;SDS011;17318;52.390;9.754;2022-12-10T03:07:25;56.33;;;18.67;;
30533;SDS011;17318;52.390;9.754;2022-12-10T03:10:00;51.53;;;17.73;;
30533;SDS011;17318;52.390;9.754;2022-12-10T03:12:32;55.50;;;18.77;;
30533;SDS011;17318;52.390;9.754;2022-12-10T03:15:07;56.65;;;18.83;;
30533;SDS011;17318;52.390;9.754;2022-12-10T03:17:35;53.35;;;18.70;;
30533;SDS011;17318;52.390;9.754;2022-12-10T03:20:03;52.33;;;17.88;;
30533;SDS011;17318;52.390;9.754;2022-12-10T03:22:36;52.95;;;18.48;;
30533;SDS011;17318;52.390;9.754;2022-12-10T03:25:04;51.47;;;17.40;;
30533;SDS011;17318;52.390;9.754;2022-12-10T03:27:31;55.28;;;19.52;;
30533;SDS011;17318;52.390;9.754;2022-12-10T03:29:58;45.72;;;17.08;;
30533;SDS011;17318;52.390;9.754;2022-12-10T03:32:24;48.85;;;17.85;;
30533;SDS011;17318;52.390;9.754;2022-12-10T03:34:53;54.90;;;19.02;;
30533;SDS011;17318;52.390;9.754;2022-12-10T03:37:21;49.30;;;17.77;;
30533;SDS011;17318;52.390;9.754;2022-12-10T03:39:49;41.95;;;16.38;;
30533;SDS011;17318;52.390;9.754;2022-12-10T03:42:15;45.63;;;17.20;;
30533;SDS011;17318;52.390;9.754;2022-12-10T03:44:41;46.03;;;17.70;;
30533;SDS011;17318;52.390;9.754;2022-12-10T03:47:07;46.33;;;17.63;;
30533;SDS011;17318;52.390;9.754;2022-12-10T03:49:38;44.40;;;17.63;;
30533;SDS011;17318;52.390;9.754;2022-12-10T03:52:05;40.45;;;15.85;;
30533;SDS011;17318;52.390;9.754;2022-12-10T03:54:30;41.72;;;16.08;;
30533;SDS011;17318;52.390;9.754;2022-12-10T03:56:56;42.80;;;16.48;;
30533;SDS011;17318;52.390;9.754;2022-12-10T03:59:21;39.08;;;15.25;;
30533;SDS011;17318;52.390;9.754;2022-12-10T04:01:47;40.13;;;15.27;;
30533;SDS011;17318;52.390;9.754;2022-12-10T04:04:13;39.83;;;15.82;;
30533;SDS011;17318;52.390;9.754;2022-12-10T04:06:40;43.58;;;15.95;;
30533;SDS011;17318;52.390;9.754;2022-12-10T04:09:06;43.50;;;16.25;;
30533;SDS011;17318;52.390;9.754;2022-12-10T04:11:34;42.40;;;16.13;;
30533;SDS011;17318;52.390;9.754;2022-12-10T04:14:00;45.58;;;16.85;;
30533;SDS011;17318;52.390;9.754;2022-12-10T04:16:44;42.30;;;16.40;;
30533;SDS011;17318;52.390;9.754;2022-12-10T04:19:11;42.75;;;16.48;;
30533;SDS011;17318;52.390;9.754;2022-12-10T04:24:26;40.30;;;14.95;;
30533;SDS011;17318;52.390;9.754;2022-12-10T04:27:13;52.28;;;16.73;;
30533;SDS011;17318;52.390;9.754;2022-12-10T04:29:55;38.50;;;15.02;;
30533;SDS011;17318;52.390;9.754;2022-12-10T04:32:22;44.72;;;16.27;;
30533;SDS011;17318;52.390;9.754;2022-12-10T04:34:49;41.80;;;16.92;;
30533;SDS011;17318;52.390;9.754;2022-12-10T04:37:15;52.17;;;16.58;;
30533;SDS011;17318;52.390;9.754;2022-12-10T04:39:41;42.83;;;15.45;;
30533;SDS011;17318;52.390;9.754;2022-12-10T04:42:08;40.67;;;15.52;;
30533;SDS011;17318;52.390;9.754;2022-12-10T04:44:34;37.53;;;14.75;;
30533;SDS011;17318;52.390;9.754;2022-12-10T04:47:00;45.45;;;15.90;;
30533;SDS011;17318;52.390;9.754;2022-12-10T04:49:26;46.67;;;16.42;;
30533;SDS011;17318;52.390;9.754;2022-12-10T04:51:52;39.70;;;15.50;;
30533;SDS011;17318;52.390;9.754;2022-12-10T04:54:18;36.80;;;15.23;;
30533;SDS011;17318;52.390;9.754;2022-12-10T04:56:44;40.90;;;15.02;;
30533;SDS011;17318;52.390;9.754;2022-12-10T04:59:11;42.42;;;14.90;;
30533;SDS011;17318;52.390;9.754;2022-12-10T05:01:37;36.15;;;14.77;;
30533;SDS011;17318;52.390;9.754;2022-12-10T05:04:04;38.58;;;14.73;;
30533;SDS011;17318;52.390;9.754;2022-12-10T05:06:31;38.75;;;15.00;;
30533;SDS011;17318;52.390;9.754;2022-12-10T05:08:57;38.58;;;14.63;;
30533;SDS011;17318;52.390;9.754;2022-12-10T05:11:24;43.20;;;14.35;;
30533;SDS011;17318;52.390;9.754;2022-12-10T05:13:52;38.53;;;14.52;;
30533;SDS011;17318;52.390;9.754;2022-12-10T05:16:19;38.95;;;14.73;;
30533;SDS011;17318;52.390;9.754;2022-12-10T05:18:46;36.20;;;14.05;;
30533;SDS011;17318;52.390;9.754;2022-12-10T05:21:13;36.42;;;15.10;;
30533;SDS011;17318;52.390;9.754;2022-12-10T05:23:42;34.80;;;14.50;;
30533;SDS011;17318;52.390;9.754;2022-12-10T05:26:11;40.00;;;14.50;;
30533;SDS011;17318;52.390;9.754;2022-12-10T05:28:40;37.72;;;13.95;;
30533;SDS011;17318;52.390;9.754;2022-12-10T05:31:12;35.53;;;13.68;;
30533;SDS011;17318;52.390;9.754;2022-12-10T05:33:49;40.78;;;14.95;;
30533;SDS011;17318;52.390;9.754;2022-12-10T05:36:16;34.70;;;14.13;;
30533;SDS011;17318;52.390;9.754;2022-12-10T05:38:44;39.17;;;15.35;;
30533;SDS011;17318;52.390;9.754;2022-12-10T05:41:13;35.90;;;13.55;;
30533;SDS011;17318;52.390;9.754;2022-12-10T05:43:41;37.55;;;14.48;;
30533;SDS011;17318;52.390;9.754;2022-12-10T05:46:09;25.53;;;11.17;;
30533;SDS011;17318;52.390;9.754;2022-12-10T05:48:37;31.70;;;12.15;;
30533;SDS011;17318;52.390;9.754;2022-12-10T05:51:07;34.28;;;13.40;;
30533;SDS011;17318;52.390;9.754;2022-12-10T05:53:33;32.72;;;12.57;;
30533;SDS011;17318;52.390;9.754;2022-12-10T05:56:03;30.52;;;12.40;;
30533;SDS011;17318;52.390;9.754;2022-12-10T05:58:34;31.70;;;12.85;;
30533;SDS011;17318;52.390;9.754;2022-12-10T06:01:05;36.95;;;14.02;;
30533;SDS011;17318;52.390;9.754;2022-12-10T06:03:39;31.20;;;12.73;;
30533;SDS011;17318;52.390;9.754;2022-12-10T06:06:05;29.77;;;13.02;;
30533;SDS011;17318;52.390;9.754;2022-12-10T06:08:31;33.22;;;13.25;;
30533;SDS011;17318;52.390;9.754;2022-12-10T06:11:02;31.27;;;13.17;;
30533;SDS011;17318;52.390;9.754;2022-12-10T06:13:28;31.35;;;12.23;;
30533;SDS011;17318;52.390;9.754;2022-12-10T06:15:54;32.75;;;11.65;;
30533;SDS011;17318;52.390;9.754;2022-12-10T06:18:20;29.40;;;12.43;;
30533;SDS011;17318;52.390;9.754;2022-12-10T06:20:46;29.77;;;11.68;;
30533;SDS011;17318;52.390;9.754;2022-12-10T06:23:11;27.88;;;11.88;;
30533;SDS011;17318;52.390;9.754;2022-12-10T06:25:37;29.88;;;12.57;;
30533;SDS011;17318;52.390;9.754;2022-12-10T06:28:04;24.73;;;12.15;;
30533;SDS011;17318;52.390;9.754;2022-12-10T06:30:30;24.17;;;10.38;;
30533;SDS011;17318;52.390;9.754;2022-12-10T06:32:56;30.83;;;12.15;;
30533;SDS011;17318;52.390;9.754;2022-12-10T06:35:21;29.08;;;12.25;;
30533;SDS011;17318;52.390;9.754;2022-12-10T06:37:48;30.50;;;13.07;;
30533;SDS011;17318;52.390;9.754;2022-12-10T06:40:14;25.60;;;11.23;;
30533;SDS011;17318;52.390;9.754;2022-12-10T06:42:40;34.17;;;13.35;;
30533;SDS011;17318;52.390;9.754;2022-12-10T06:45:06;34.40;;;12.70;;
30533;SDS011;17318;52.390;9.754;2022-12-10T06:47:32;35.65;;;13.60;;
30533;SDS011;17318;52.390;9.754;2022-12-10T06:49:58;35.88;;;14.60;;
30533;SDS011;17318;52.390;9.754;2022-12-10T06:52:24;35.53;;;14.73;;
30533;SDS011;17318;52.390;9.754;2022-12-10T06:54:50;35.88;;;13.73;;
30533;SDS011;17318;52.390;9.754;2022-12-10T06:57:16;34.70;;;13.23;;
30533;SDS011;17318;52.390;9.754;2022-12-10T06:59:41;35.30;;;14.00;;
30533;SDS011;17318;52.390;9.754;2022-12-10T07:02:08;33.00;;;13.43;;
30533;SDS011;17318;52.390;9.754;2022-12-10T07:04:34;31.95;;;13.52;;
30533;SDS011;17318;52.390;9.754;2022-12-10T07:07:00;34.10;;;13.65;;
30533;SDS011;17318;52.390;9.754;2022-12-10T07:09:26;38.38;;;14.70;;
30533;SDS011;17318;52.390;9.754;2022-12-10T07:11:51;31.92;;;13.93;;
30533;SDS011;17318;52.390;9.754;2022-12-10T07:14:17;29.88;;;13.60;;
30533;SDS011;17318;52.390;9.754;2022-12-10T07:16:45;37.88;;;14.48;;
30533;SDS011;17318;52.390;9.754;2022-12-10T07:19:11;33.35;;;13.68;;
30533;SDS011;17318;52.390;9.754;2022-12-10T07:21:39;36.67;;;15.00;;
30533;SDS011;17318;52.390;9.754;2022-12-10T07:24:06;33.53;;;14.38;;
30533;SDS011;17318;52.390;9.754;2022-12-10T07:26:36;35.17;;;14.88;;
30533;SDS011;17318;52.390;9.754;2022-12-10T07:29:03;32.92;;;13.10;;
30533;SDS011;17318;52.390;9.754;2022-12-10T07:31:31;34.38;;;14.43;;
30533;SDS011;17318;52.390;9.754;2022-12-10T07:34:00;37.95;;;14.45;;
30533;SDS011;17318;52.390;9.754;2022-12-10T07:36:26;33.90;;;13.52;;
30533;SDS011;17318;52.390;9.754;2022-12-10T07:38:52;32.65;;;14.00;;
30533;SDS011;17318;52.390;9.754;2022-12-10T07:41:18;32.90;;;12.75;;
30533;SDS011;17318;52.390;9.754;2022-12-10T07:43:45;33.55;;;13.38;;
30533;SDS011;17318;52.390;9.754;2022-12-10T07:46:21;33.63;;;14.75;;
30533;SDS011;17318;52.390;9.754;2022-12-10T07:48:48;32.22;;;12.88;;
30533;SDS011;17318;52.390;9.754;2022-12-10T07:51:14;29.38;;;12.15;;
30533;SDS011;17318;52.390;9.754;2022-12-10T07:53:42;29.50;;;12.65;;
30533;SDS011;17318;52.390;9.754;2022-12-10T07:56:08;35.47;;;13.23;;
30533;SDS011;17318;52.390;9.754;2022-12-10T07:58:34;34.17;;;14.27;;
30533;SDS011;17318;52.390;9.754;2022-12-10T08:01:07;33.88;;;14.13;;
30533;SDS011;17318;52.390;9.754;2022-12-10T08:03:38;34.33;;;13.55;;
30533;SDS011;17318;52.390;9.754;2022-12-10T08:06:05;33.60;;;14.10;;
30533;SDS011;17318;52.390;9.754;2022-12-10T08:08:33;36.03;;;14.20;;
30533;SDS011;17318;52.390;9.754;2022-12-10T08:11:00;34.17;;;14.32;;
30533;SDS011;17318;52.390;9.754;2022-12-10T08:13:27;39.60;;;15.68;;
30533;SDS011;17318;52.390;9.754;2022-12-10T08:15:53;36.13;;;13.57;;
30533;SDS011;17318;52.390;9.754;2022-12-10T08:18:19;38.47;;;14.65;;
30533;SDS011;17318;52.390;9.754;2022-12-10T08:20:45;47.70;;;15.52;;
30533;SDS011;17318;52.390;9.754;2022-12-10T08:23:11;40.58;;;15.80;;
30533;SDS011;17318;52.390;9.754;2022-12-10T08:25:37;39.50;;;14.93;;
30533;SDS011;17318;52.390;9.754;2022-12-10T08:28:02;42.13;;;15.30;;
30533;SDS011;17318;52.390;9.754;2022-12-10T08:30:29;37.40;;;13.40;;
30533;SDS011;17318;52.390;9.754;2022-12-10T08:32:55;39.00;;;14.30;;
30533;SDS011;17318;52.390;9.754;2022-12-10T08:35:21;46.25;;;17.00;;
30533;SDS011;17318;52.390;9.754;2022-12-10T08:37:47;46.97;;;16.55;;
30533;SDS011;17318;52.390;9.754;2022-12-10T08:40:12;40.78;;;15.38;;
30533;SDS011;17318;52.390;9.754;2022-12-10T08:42:38;43.22;;;15.20;;
30533;SDS011;17318;52.390;9.754;2022-12-10T08:45:04;48.03;;;17.90;;
30533;SDS011;17318;52.390;9.754;2022-12-10T08:47:30;43.35;;;16.67;;
30533;SDS011;17318;52.390;9.754;2022-12-10T08:49:56;45.40;;;16.23;;
30533;SDS011;17318;52.390;9.754;2022-12-10T08:52:22;39.92;;;15.45;;
30533;SDS011;17318;52.390;9.754;2022-12-10T08:54:47;43.60;;;16.27;;
30533;SDS011;17318;52.390;9.754;2022-12-10T08:57:13;35.63;;;15.30;;
30533;SDS011;17318;52.390;9.754;2022-12-10T08:59:39;40.75;;;16.35;;
30533;SDS011;17318;52.390;9.754;2022-12-10T09:02:05;41.72;;;15.43;;
30533;SDS011;17318;52.390;9.754;2022-12-10T09:04:32;38.78;;;14.02;;
30533;SDS011;17318;52.390;9.754;2022-12-10T09:06:58;39.45;;;14.90;;
30533;SDS011;17318;52.390;9.754;2022-12-10T09:09:24;39.60;;;15.10;;
30533;SDS011;17318;52.390;9.754;2022-12-10T09:11:49;34.63;;;14.02;;
30533;SDS011;17318;52.390;9.754;2022-12-10T09:14:15;42.53;;;16.40;;
30533;SDS011;17318;52.390;9.754;2022-12-10T09:16:41;36.45;;;14.60;;
30533;SDS011;17318;52.390;9.754;2022-12-10T09:19:07;41.05;;;16.67;;
30533;SDS011;17318;52.390;9.754;2022-12-10T09:21:32;40.03;;;15.60;;
30533;SDS011;17318;52.390;9.754;2022-12-10T09:23:58;44.38;;;16.20;;
30533;SDS011;17318;52.390;9.754;2022-12-10T09:26:24;41.35;;;16.25;;
30533;SDS011;17318;52.390;9.754;2022-12-10T09:28:50;41.25;;;16.05;;
30533;SDS011;17318;52.390;9.754;2022-12-10T09:31:17;34.25;;;14.88;;
30533;SDS011;17318;52.390;9.754;2022-12-10T09:33:44;37.08;;;14.00;;
30533;SDS011;17318;52.390;9.754;2022-12-10T09:36:11;43.42;;;18.73;;
30533;SDS011;17318;52.390;9.754;2022-12-10T09:38:39;39.65;;;15.65;;
30533;SDS011;17318;52.390;9.754;2022-12-10T09:41:19;40.33;;;15.48;;
30533;SDS011;17318;52.390;9.754;2022-12-10T09:44:05;39.55;;;15.32;;
30533;SDS011;17318;52.390;9.754;2022-12-10T09:46:53;41.67;;;16.20;;
30533;SDS011;17318;52.390;9.754;2022-12-10T09:52:13;35.83;;;14.95;;
30533;SDS011;17318;52.390;9.754;2022-12-10T09:54:44;38.47;;;14.23;;
30533;SDS011;17318;52.390;9.754;2022-12-10T09:57:29;41.72;;;14.70;;
30533;SDS011;17318;52.390;9.754;2022-12-10T10:00:26;48.45;;;20.67;;
30533;SDS011;17318;52.390;9.754;2022-12-10T10:02:55;45.05;;;19.10;;
30533;SDS011;17318;52.390;9.754;2022-12-10T10:05:36;41.00;;;16.40;;
30533;SDS011;17318;52.390;9.754;2022-12-10T10:08:06;38.13;;;14.80;;
30533;SDS011;17318;52.390;9.754;2022-12-10T10:10:56;33.83;;;14.90;;
30533;SDS011;17318;52.390;9.754;2022-12-10T10:15:53;34.92;;;14.07;;
30533;SDS011;17318;52.390;9.754;2022-12-10T10:21:01;34.20;;;15.38;;
30533;SDS011;17318;52.390;9.754;2022-12-10T10:23:32;41.85;;;16.17;;
30533;SDS011;17318;52.390;9.754;2022-12-10T10:25:58;36.92;;;15.25;;
30533;SDS011;17318;52.390;9.754;2022-12-10T10:28:24;40.65;;;17.15;;
30533;SDS011;17318;52.390;9.754;2022-12-10T10:30:51;44.90;;;17.17;;
30533;SDS011;17318;52.390;9.754;2022-12-10T10:33:19;37.85;;;15.95;;
30533;SDS011;17318;52.390;9.754;2022-12-10T10:35:55;34.40;;;15.43;;
30533;SDS011;17318;52.390;9.754;2022-12-10T10:38:28;35.47;;;14.88;;
30533;SDS011;17318;52.390;9.754;2022-12-10T10:40:59;35.47;;;13.73;;
30533;SDS011;17318;52.390;9.754;2022-12-10T10:46:09;36.50;;;14.35;;
30533;SDS011;17318;52.390;9.754;2022-12-10T10:48:40;32.20;;;14.65;;
30533;SDS011;17318;52.390;9.754;2022-12-10T10:56:11;36.78;;;15.05;;
30533;SDS011;17318;52.390;9.754;2022-12-10T11:01:27;34.95;;;15.10;;
30533;SDS011;17318;52.390;9.754;2022-12-10T11:04:15;32.60;;;15.13;;
30533;SDS011;17318;52.390;9.754;2022-12-10T11:06:42;37.50;;;14.82;;
30533;SDS011;17318;52.390;9.754;2022-12-10T11:09:17;34.45;;;14.65;;
30533;SDS011;17318;52.390;9.754;2022-12-10T11:11:50;33.35;;;15.18;;
30533;SDS011;17318;52.390;9.754;2022-12-10T11:14:27;33.25;;;14.35;;
30533;SDS011;17318;52.390;9.754;2022-12-10T11:17:00;33.50;;;14.52;;
30533;SDS011;17318;52.390;9.754;2022-12-10T11:19:28;33.13;;;14.38;;
30533;SDS011;17318;52.390;9.754;2022-12-10T11:21:53;27.85;;;12.05;;
30533;SDS011;17318;52.390;9.754;2022-12-10T11:24:19;29.88;;;13.05;;
30533;SDS011;17318;52.390;9.754;2022-12-10T11:30:01;31.52;;;13.07;;
30533;SDS011;17318;52.390;9.754;2022-12-10T11:35:11;29.17;;;12.45;;
30533;SDS011;17318;52.390;9.754;2022-12-10T11:40:53;29.83;;;12.57;;
30533;SDS011;17318;52.390;9.754;2022-12-10T11:46:30;36.47;;;13.82;;
30533;SDS011;17318;52.390;9.754;2022-12-10T11:49:12;33.33;;;14.02;;
30533;SDS011;17318;52.390;9.754;2022-12-10T11:58:17;29.30;;;13.07;;
30533;SDS011;17318;52.390;9.754;2022-12-10T12:09:05;32.05;;;14.27;;
30533;SDS011;17318;52.390;9.754;2022-12-10T12:11:49;28.40;;;12.65;;
30533;SDS011;17318;52.390;9.754;2022-12-10T12:14:44;29.15;;;12.55;;
30533;SDS011;17318;52.390;9.754;2022-12-10T12:17:16;28.88;;;12.88;;
30533;SDS011;17318;52.390;9.754;2022-12-10T12:19:53;32.47;;;13.40;;
30533;SDS011;17318;52.390;9.754;2022-12-10T12:22:27;34.10;;;13.52;;
30533;SDS011;17318;52.390;9.754;2022-12-10T12:25:00;35.83;;;13.80;;
30533;SDS011;17318;52.390;9.754;2022-12-10T12:28:14;32.22;;;14.00;;
30533;SDS011;17318;52.390;9.754;2022-12-10T12:30:28;25.33;;;11.35;;
30533;SDS011;17318;52.390;9.754;2022-12-10T12:33:01;29.17;;;12.63;;
30533;SDS011;17318;52.390;9.754;2022-12-10T12:35:46;32.55;;;13.85;;
30533;SDS011;17318;52.390;9.754;2022-12-10T12:38:28;35.28;;;14.00;;
30533;SDS011;17318;52.390;9.754;2022-12-10T12:40:59;29.88;;;12.88;;
30533;SDS011;17318;52.390;9.754;2022-12-10T12:46:00;36.33;;;14.75;;
30533;SDS011;17318;52.390;9.754;2022-12-10T12:53:52;32.83;;;14.32;;
30533;SDS011;17318;52.390;9.754;2022-12-10T12:59:22;34.97;;;13.52;;
30533;SDS011;17318;52.390;9.754;2022-12-10T13:02:06;37.58;;;14.40;;
30533;SDS011;17318;52.390;9.754;2022-12-10T13:04:55;30.67;;;13.32;;
30533;SDS011;17318;52.390;9.754;2022-12-10T13:09:48;35.28;;;14.05;;
30533;SDS011;17318;52.390;9.754;2022-12-10T13:15:14;35.70;;;15.75;;
30533;SDS011;17318;52.390;9.754;2022-12-10T13:22:57;41.30;;;16.00;;
30533;SDS011;17318;52.390;9.754;2022-12-10T13:25:38;37.03;;;15.45;;
30533;SDS011;17318;52.390;9.754;2022-12-10T13:36:19;32.28;;;14.07;;
30533;SDS011;17318;52.390;9.754;2022-12-10T13:41:43;29.65;;;12.85;;
30533;SDS011;17318;52.390;9.754;2022-12-10T13:44:49;35.53;;;14.30;;
30533;SDS011;17318;52.390;9.754;2022-12-10T13:47:37;32.33;;;13.82;;
30533;SDS011;17318;52.390;9.754;2022-12-10T14:06:12;34.50;;;14.32;;
30533;SDS011;17318;52.390;9.754;2022-12-10T14:08:44;37.20;;;14.45;;
30533;SDS011;17318;52.390;9.754;2022-12-10T14:11:21;41.00;;;14.55;;
30533;SDS011;17318;52.390;9.754;2022-12-10T14:13:54;32.30;;;14.05;;
30533;SDS011;17318;52.390;9.754;2022-12-10T14:16:23;39.03;;;14.75;;
30533;SDS011;17318;52.390;9.754;2022-12-10T14:18:52;35.00;;;14.88;;
30533;SDS011;17318;52.390;9.754;2022-12-10T14:21:21;40.28;;;15.70;;
30533;SDS011;17318;52.390;9.754;2022-12-10T14:23:50;40.88;;;15.85;;
30533;SDS011;17318;52.390;9.754;2022-12-10T14:26:27;33.60;;;14.27;;
30533;SDS011;17318;52.390;9.754;2022-12-10T14:28:58;33.80;;;14.07;;
30533;SDS011;17318;52.390;9.754;2022-12-10T14:31:26;62.73;;;15.40;;
30533;SDS011;17318;52.390;9.754;2022-12-10T14:33:59;35.78;;;14.57;;
30533;SDS011;17318;52.390;9.754;2022-12-10T14:36:31;34.50;;;14.82;;
30533;SDS011;17318;52.390;9.754;2022-12-10T14:38:59;36.53;;;15.23;;
30533;SDS011;17318;52.390;9.754;2022-12-10T14:41:26;37.42;;;15.13;;
30533;SDS011;17318;52.390;9.754;2022-12-10T14:43:54;36.45;;;13.95;;
30533;SDS011;17318;52.390;9.754;2022-12-10T14:46:23;41.63;;;15.10;;
30533;SDS011;17318;52.390;9.754;2022-12-10T14:48:52;38.13;;;15.18;;
30533;SDS011;17318;52.390;9.754;2022-12-10T14:51:21;72.10;;;16.88;;
30533;SDS011;17318;52.390;9.754;2022-12-10T14:53:49;53.13;;;21.25;;
30533;SDS011;17318;52.390;9.754;2022-12-10T14:56:26;90.90;;;19.48;;
30533;SDS011;17318;52.390;9.754;2022-12-10T15:02:16;43.42;;;16.40;;
30533;SDS011;17318;52.390;9.754;2022-12-10T15:04:47;43.10;;;17.25;;
30533;SDS011;17318;52.390;9.754;2022-12-10T15:07:15;61.13;;;21.42;;
30533;SDS011;17318;52.390;9.754;2022-12-10T15:09:45;59.95;;;22.38;;
30533;SDS011;17318;52.390;9.754;2022-12-10T15:12:46;55.67;;;21.15;;
30533;SDS011;17318;52.390;9.754;2022-12-10T15:15:16;45.38;;;17.52;;
30533;SDS011;17318;52.390;9.754;2022-12-10T15:17:55;43.90;;;16.60;;
30533;SDS011;17318;52.390;9.754;2022-12-10T15:20:25;46.85;;;16.63;;
30533;SDS011;17318;52.390;9.754;2022-12-10T15:22:54;35.53;;;14.38;;
30533;SDS011;17318;52.390;9.754;2022-12-10T15:25:30;41.33;;;15.27;;
30533;SDS011;17318;52.390;9.754;2022-12-10T15:28:20;39.92;;;16.92;;
30533;SDS011;17318;52.390;9.754;2022-12-10T15:30:49;38.88;;;15.88;;
30533;SDS011;17318;52.390;9.754;2022-12-10T15:33:35;44.70;;;17.80;;
30533;SDS011;17318;52.390;9.754;2022-12-10T15:36:03;40.80;;;15.82;;
30533;SDS011;17318;52.390;9.754;2022-12-10T15:38:30;48.75;;;16.98;;
30533;SDS011;17318;52.390;9.754;2022-12-10T15:41:19;46.93;;;18.03;;
30533;SDS011;17318;52.390;9.754;2022-12-10T15:49:47;50.20;;;19.40;;
30533;SDS011;17318;52.390;9.754;2022-12-10T15:52:17;50.08;;;18.15;;
30533;SDS011;17318;52.390;9.754;2022-12-10T15:54:46;51.33;;;19.33;;
30533;SDS011;17318;52.390;9.754;2022-12-10T15:57:35;44.38;;;18.13;;
30533;SDS011;17318;52.390;9.754;2022-12-10T16:00:05;41.08;;;15.32;;
30533;SDS011;17318;52.390;9.754;2022-12-10T16:02:40;43.15;;;16.10;;
30533;SDS011;17318;52.390;9.754;2022-12-10T16:05:15;38.05;;;15.77;;
30533;SDS011;17318;52.390;9.754;2022-12-10T16:07:48;41.28;;;15.68;;
30533;SDS011;17318;52.390;9.754;2022-12-10T16:10:17;38.13;;;15.77;;
30533;SDS011;17318;52.390;9.754;2022-12-10T16:12:48;42.95;;;16.52;;
30533;SDS011;17318;52.390;9.754;2022-12-10T16:15:19;36.03;;;15.55;;
30533;SDS011;17318;52.390;9.754;2022-12-10T16:17:48;32.50;;;14.07;;
30533;SDS011;17318;52.390;9.754;2022-12-10T16:20:18;42.97;;;17.35;;
30533;SDS011;17318;52.390;9.754;2022-12-10T16:22:50;37.97;;;15.85;;
30533;SDS011;17318;52.390;9.754;2022-12-10T16:25:17;37.42;;;16.05;;
30533;SDS011;17318;52.390;9.754;2022-12-10T16:27:43;38.40;;;15.38;;
30533;SDS011;17318;52.390;9.754;2022-12-10T16:30:13;37.42;;;15.98;;
30533;SDS011;17318;52.390;9.754;2022-12-10T16:32:40;41.17;;;16.25;;
30533;SDS011;17318;52.390;9.754;2022-12-10T16:35:06;43.72;;;16.17;;
30533;SDS011;17318;52.390;9.754;2022-12-10T16:37:32;38.38;;;16.05;;
30533;SDS011;17318;52.390;9.754;2022-12-10T16:39:58;31.95;;;13.43;;
30533;SDS011;17318;52.390;9.754;2022-12-10T16:42:23;39.50;;;16.85;;
30533;SDS011;17318;52.390;9.754;2022-12-10T16:44:49;40.13;;;15.88;;
30533;SDS011;17318;52.390;9.754;2022-12-10T16:47:15;37.65;;;16.02;;
30533;SDS011;17318;52.390;9.754;2022-12-10T16:49:41;39.72;;;17.20;;
30533;SDS011;17318;52.390;9.754;2022-12-10T16:52:10;52.35;;;19.27;;